createdAt,value
2023-04-16T00:00:36.153Z,12.50
2023-04-16T00:03:39.563Z,12.07
2023-04-16T00:06:43.052Z,9.90
2023-04-16T00:09:46.862Z,9.65
2023-04-16T00:12:49.957Z,8.88
2023-04-16T00:15:53.141Z,9.75
2023-04-16T00:18:56.437Z,9.65
2023-04-16T00:21:59.728Z,10.70
2023-04-16T00:25:03.115Z,12.95
2023-04-16T00:28:06.734Z,11.70
2023-04-16T00:31:09.896Z,12.68
2023-04-16T00:34:12.714Z,10.77
2023-04-16T00:37:16.109Z,10.50
2023-04-16T00:40:19.202Z,20.10
2023-04-16T00:43:27.304Z,14.68
2023-04-16T00:46:30.863Z,18.45
2023-04-16T00:49:34.515Z,12.57
2023-04-16T00:52:38.113Z,12.75
2023-04-16T00:55:41.302Z,17.58
2023-04-16T00:58:44.803Z,15.00
2023-04-16T01:01:47.914Z,15.65
2023-04-16T01:04:52.011Z,7.50
2023-04-16T01:07:58.894Z,7.35
2023-04-16T01:11:02.386Z,7.15
2023-04-16T01:14:06.103Z,7.03
2023-04-16T01:17:09.296Z,9.98
2023-04-16T01:20:12.595Z,13.02
2023-04-16T01:23:15.990Z,12.30
2023-04-16T01:26:18.968Z,15.13
2023-04-16T01:29:22.279Z,12.40
2023-04-16T01:32:25.489Z,15.10
2023-04-16T01:35:28.346Z,10.55
2023-04-16T01:38:31.542Z,8.75
2023-04-16T01:41:34.736Z,9.70
2023-04-16T01:44:37.634Z,7.93
2023-04-16T01:47:41.080Z,7.55
2023-04-16T01:50:44.419Z,11.90
2023-04-16T01:53:47.608Z,7.32
2023-04-16T01:56:51.010Z,9.57
2023-04-16T01:59:53.905Z,9.43
2023-04-16T02:02:57.175Z,10.63
2023-04-16T02:06:01.502Z,9.05
2023-04-16T02:09:04.496Z,10.35
2023-04-16T02:12:09.838Z,13.35
2023-04-16T02:15:13.153Z,8.25
2023-04-16T02:18:16.428Z,11.80
2023-04-16T02:21:20.647Z,11.40
2023-04-16T02:24:23.836Z,11.30
2023-04-16T02:27:27.032Z,9.48
2023-04-16T02:30:30.218Z,11.18
2023-04-16T02:33:33.313Z,9.98
2023-04-16T02:36:36.304Z,8.95
2023-04-16T02:39:39.394Z,10.25
2023-04-16T02:42:42.384Z,9.25
2023-04-16T02:45:45.498Z,13.65
2023-04-16T02:48:48.564Z,10.40
2023-04-16T02:51:51.554Z,11.38
2023-04-16T02:54:54.750Z,10.60
2023-04-16T02:57:57.834Z,9.35
2023-04-16T03:01:01.260Z,10.05
2023-04-16T03:04:04.650Z,12.13
2023-04-16T03:07:09.167Z,14.35
2023-04-16T03:10:13.774Z,13.27
2023-04-16T03:13:17.185Z,18.70
2023-04-16T03:16:20.216Z,15.48
2023-04-16T03:19:23.565Z,13.73
2023-04-16T03:22:26.646Z,11.65
2023-04-16T03:25:29.649Z,15.15
2023-04-16T03:28:32.940Z,20.65
2023-04-16T03:31:36.626Z,20.00
2023-04-16T03:34:39.747Z,17.30
2023-04-16T03:37:42.955Z,11.95
2023-04-16T03:40:46.125Z,12.68
2023-04-16T03:43:49.112Z,13.75
2023-04-16T03:46:52.313Z,19.48
2023-04-16T03:49:55.503Z,12.70
2023-04-16T03:52:58.791Z,17.00
2023-04-16T03:56:01.583Z,13.90
2023-04-16T03:59:04.974Z,18.95
2023-04-16T04:02:08.455Z,15.48
2023-04-16T04:05:11.583Z,11.48
2023-04-16T04:08:14.653Z,12.45
2023-04-16T04:11:17.751Z,11.73
2023-04-16T04:14:20.430Z,11.82
2023-04-16T04:17:23.654Z,10.75
2023-04-16T04:20:26.729Z,9.35
2023-04-16T04:23:29.806Z,9.82
2023-04-16T04:26:32.930Z,8.15
2023-04-16T04:29:36.293Z,11.50
2023-04-16T04:32:39.523Z,9.25
2023-04-16T04:35:42.677Z,8.02
2023-04-16T04:38:45.981Z,7.00
2023-04-16T04:41:49.488Z,7.65
2023-04-16T04:44:52.362Z,10.20
2023-04-16T04:47:55.714Z,8.85
2023-04-16T04:51:04.241Z,8.85
2023-04-16T04:54:08.188Z,11.63
2023-04-16T04:57:11.390Z,9.75
2023-04-16T05:00:14.541Z,10.27
2023-04-16T05:03:21.689Z,7.97
2023-04-16T05:06:24.965Z,9.10
2023-04-16T05:09:28.240Z,10.93
2023-04-16T05:12:31.445Z,8.00
2023-04-16T05:15:34.637Z,10.00
2023-04-16T05:18:37.726Z,8.35
2023-04-16T05:21:40.614Z,11.68
2023-04-16T05:24:43.808Z,10.70
2023-04-16T05:27:46.801Z,8.57
2023-04-16T05:30:50.119Z,26.65
2023-04-16T05:33:53.185Z,20.55
2023-04-16T05:36:56.267Z,18.45
2023-04-16T05:39:59.362Z,25.60
2023-04-16T05:43:02.450Z,10.20
2023-04-16T05:46:05.683Z,9.60
2023-04-16T05:49:09.272Z,7.15
2023-04-16T05:52:13.051Z,7.95
2023-04-16T05:55:16.041Z,9.13
2023-04-16T05:58:19.148Z,9.38
2023-04-16T06:01:22.962Z,9.02
2023-04-16T06:04:26.342Z,10.15
2023-04-16T06:07:29.326Z,8.90
2023-04-16T06:10:32.113Z,7.22
2023-04-16T06:13:35.407Z,9.38
2023-04-16T06:16:38.600Z,9.32
2023-04-16T06:19:41.687Z,8.38
2023-04-16T06:22:44.778Z,7.43
2023-04-16T06:25:47.972Z,6.30
2023-04-16T06:28:51.273Z,7.72
2023-04-16T06:31:54.793Z,8.23
2023-04-16T06:34:58.984Z,11.07
2023-04-16T06:38:02.081Z,9.38
2023-04-16T06:41:06.195Z,8.70
2023-04-16T06:44:09.904Z,9.90
2023-04-16T06:47:13.090Z,7.30
2023-04-16T06:50:16.274Z,11.38
2023-04-16T06:53:19.480Z,10.05
2023-04-16T06:56:22.464Z,10.15
2023-04-16T06:59:25.966Z,8.02
2023-04-16T07:02:29.279Z,8.43
2023-04-16T07:05:32.388Z,7.15
2023-04-16T07:08:35.550Z,7.35
2023-04-16T07:11:39.356Z,7.88
2023-04-16T07:14:43.367Z,7.43
2023-04-16T07:17:46.731Z,7.45
2023-04-16T07:20:49.458Z,9.10
2023-04-16T07:23:52.540Z,6.45
2023-04-16T07:26:55.527Z,6.53
2023-04-16T07:29:58.614Z,5.35
2023-04-16T07:33:05.950Z,5.00
2023-04-16T07:36:09.211Z,7.75
2023-04-16T07:39:13.524Z,6.03
2023-04-16T07:42:16.850Z,6.07
2023-04-16T07:45:20.218Z,5.72
2023-04-16T07:48:23.425Z,6.07
2023-04-16T07:51:26.809Z,6.93
2023-04-16T07:54:29.695Z,6.63
2023-04-16T07:57:32.690Z,6.85
2023-04-16T08:00:36.592Z,8.07
2023-04-16T08:03:40.023Z,6.00
2023-04-16T08:06:43.591Z,6.13
2023-04-16T08:09:51.506Z,5.65
2023-04-16T08:12:54.897Z,5.68
2023-04-16T08:15:57.818Z,7.70
2023-04-16T08:19:01.476Z,6.20
2023-04-16T08:22:05.093Z,7.00
2023-04-16T08:25:08.697Z,4.68
2023-04-16T08:28:11.678Z,4.75
2023-04-16T08:31:14.923Z,3.65
2023-04-16T08:34:18.173Z,3.50
2023-04-16T08:37:21.365Z,3.90
2023-04-16T08:40:27.021Z,3.00
2023-04-16T08:43:34.923Z,3.10
2023-04-16T08:46:41.340Z,3.25
2023-04-16T08:49:48.984Z,3.50
2023-04-16T08:52:54.121Z,4.88
2023-04-16T08:56:04.486Z,3.38
2023-04-16T08:59:08.054Z,6.72
2023-04-16T09:02:14.103Z,4.30
2023-04-16T09:05:17.975Z,5.07
2023-04-16T09:08:21.666Z,7.13
2023-04-16T09:11:26.179Z,7.05
2023-04-16T09:14:29.994Z,6.85
2023-04-16T09:17:34.965Z,6.15
2023-04-16T09:20:38.731Z,9.35
2023-04-16T09:23:42.745Z,6.55
2023-04-16T09:26:46.761Z,7.03
2023-04-16T09:29:50.362Z,6.53
2023-04-16T09:33:13.148Z,9.30
2023-04-16T09:36:24.090Z,16.55
2023-04-16T09:39:27.793Z,26.02
2023-04-16T09:42:33.345Z,9.98
2023-04-16T09:45:57.667Z,9.35
2023-04-16T09:49:09.447Z,7.40
2023-04-16T09:52:16.708Z,7.40
2023-04-16T09:55:28.498Z,7.78
2023-04-16T09:58:32.012Z,7.47
2023-04-16T10:01:36.998Z,7.78
2023-04-16T10:04:54.687Z,7.53
2023-04-16T10:08:02.524Z,7.10
2023-04-16T10:11:06.204Z,8.02
2023-04-16T10:14:09.276Z,8.38
2023-04-16T10:17:12.516Z,7.68
2023-04-16T10:20:17.295Z,11.07
2023-04-16T10:23:22.151Z,9.07
2023-04-16T10:26:25.740Z,6.50
2023-04-16T10:29:31.799Z,6.50
2023-04-16T10:32:36.834Z,4.90
2023-04-16T10:35:41.168Z,8.63
2023-04-16T10:38:50.193Z,7.50
2023-04-16T10:42:09.083Z,7.10
2023-04-16T10:45:12.349Z,8.35
2023-04-16T10:48:18.917Z,5.70
2023-04-16T10:51:34.895Z,4.53
2023-04-16T10:54:38.509Z,10.50
2023-04-16T10:57:41.198Z,4.28
2023-04-16T11:00:54.316Z,5.25
2023-04-16T11:04:22.333Z,6.93
2023-04-16T11:07:35.621Z,5.47
2023-04-16T11:10:40.267Z,6.80
2023-04-16T11:13:46.721Z,4.57
2023-04-16T11:16:49.705Z,6.05
2023-04-16T11:19:53.726Z,4.97
2023-04-16T11:22:58.346Z,4.70
2023-04-16T11:26:01.645Z,4.82
2023-04-16T11:29:17.647Z,6.57
2023-04-16T11:32:24.226Z,4.80
2023-04-16T11:35:27.720Z,8.20
2023-04-16T11:38:38.172Z,3.53
2023-04-16T11:41:52.837Z,3.15
2023-04-16T11:44:57.773Z,5.20
2023-04-16T11:48:01.215Z,4.18
2023-04-16T11:51:04.568Z,3.13
2023-04-16T11:54:11.151Z,2.67
2023-04-16T11:57:15.665Z,2.20
2023-04-16T12:00:24.239Z,2.65
2023-04-16T12:03:44.398Z,3.05
2023-04-16T12:07:14.303Z,4.65
2023-04-16T12:10:17.599Z,3.80
2023-04-16T12:13:20.593Z,3.10
2023-04-16T12:16:26.554Z,3.42
2023-04-16T12:19:30.244Z,8.00
2023-04-16T12:22:37.093Z,4.32
2023-04-16T12:25:43.600Z,6.78
2023-04-16T12:28:46.695Z,5.00
2023-04-16T12:31:51.732Z,5.32
2023-04-16T12:34:54.715Z,7.18
2023-04-16T12:37:58.260Z,4.45
2023-04-16T12:41:02.616Z,3.38
2023-04-16T12:44:12.278Z,4.47
2023-04-16T12:50:18.767Z,6.88
2023-04-16T12:53:21.960Z,6.55
2023-04-16T12:56:25.261Z,8.88
2023-04-16T12:59:29.377Z,7.15
2023-04-16T13:02:32.957Z,7.72
2023-04-16T13:05:36.378Z,12.27
2023-04-16T13:08:39.977Z,8.52
2023-04-16T13:11:43.697Z,4.97
2023-04-16T13:14:47.390Z,5.28
2023-04-16T13:17:50.500Z,8.10
2023-04-16T13:20:54.500Z,4.63
2023-04-16T13:23:58.405Z,4.75
2023-04-16T13:27:01.710Z,6.75
2023-04-16T13:30:05.278Z,11.48
2023-04-16T13:33:09.656Z,5.38
2023-04-16T13:36:12.828Z,7.28
2023-04-16T13:39:16.431Z,7.90
2023-04-16T13:42:19.830Z,8.25
2023-04-16T13:45:23.377Z,7.00
2023-04-16T13:48:26.623Z,7.72
2023-04-16T13:51:29.915Z,8.05
2023-04-16T13:54:34.231Z,11.52
2023-04-16T13:57:38.142Z,17.58
2023-04-16T14:00:41.359Z,9.65
2023-04-16T14:03:44.812Z,8.35
2023-04-16T14:06:49.572Z,7.90
2023-04-16T14:09:53.069Z,8.43
2023-04-16T14:12:55.950Z,6.55
2023-04-16T14:15:59.169Z,12.35
2023-04-16T14:19:02.456Z,14.10
2023-04-16T14:22:07.465Z,9.65
2023-04-16T14:25:12.003Z,9.32
2023-04-16T14:28:16.426Z,6.03
2023-04-16T14:31:21.935Z,6.95
2023-04-16T14:34:28.339Z,7.20
2023-04-16T14:37:31.946Z,4.95
2023-04-16T14:40:35.754Z,5.93
2023-04-16T14:43:40.602Z,4.30
2023-04-16T14:46:44.080Z,6.82
2023-04-16T14:49:47.384Z,6.00
2023-04-16T14:52:51.917Z,7.70
2023-04-16T14:55:58.376Z,5.95
2023-04-16T14:59:01.615Z,5.78
2023-04-16T15:02:05.161Z,4.72
2023-04-16T15:05:10.922Z,6.55
2023-04-16T15:08:14.126Z,4.30
2023-04-16T15:11:17.104Z,4.03
2023-04-16T15:14:20.105Z,6.28
2023-04-16T15:17:23.329Z,4.60
2023-04-16T15:20:28.536Z,4.60
2023-04-16T15:23:32.446Z,4.40
2023-04-16T15:26:35.952Z,5.45
2023-04-16T15:29:39.648Z,5.38
2023-04-16T15:32:45.241Z,6.03
2023-04-16T15:35:48.391Z,7.25
2023-04-16T15:38:52.491Z,6.45
2023-04-16T15:42:00.419Z,7.57
2023-04-16T15:45:08.521Z,6.80
2023-04-16T15:48:13.489Z,4.85
2023-04-16T15:51:17.364Z,7.75
2023-04-16T15:54:21.682Z,7.15
2023-04-16T15:57:25.490Z,5.60
2023-04-16T16:00:29.509Z,5.80
2023-04-16T16:03:34.281Z,7.05
2023-04-16T16:06:38.976Z,6.43
2023-04-16T16:09:42.257Z,12.32
2023-04-16T16:12:44.941Z,10.15
2023-04-16T16:15:48.372Z,24.05
2023-04-16T16:18:52.459Z,11.93
2023-04-16T16:21:58.008Z,13.82
2023-04-16T16:25:01.400Z,11.68
2023-04-16T16:28:07.264Z,9.40
2023-04-16T16:31:15.082Z,8.75
2023-04-16T16:34:21.127Z,10.60
2023-04-16T16:37:24.931Z,11.23
2023-04-16T16:40:29.554Z,11.23
2023-04-16T16:43:33.462Z,13.35
2023-04-16T16:46:37.829Z,11.45
2023-04-16T16:49:41.425Z,13.02
2023-04-16T16:52:45.803Z,16.88
2023-04-16T16:55:49.414Z,20.25
2023-04-16T16:58:53.628Z,16.77
2023-04-16T17:01:57.486Z,16.73
2023-04-16T17:05:01.578Z,15.40
2023-04-16T17:08:05.057Z,16.00
2023-04-16T17:11:08.780Z,11.07
2023-04-16T17:14:14.451Z,15.45
2023-04-16T17:17:18.567Z,12.23
2023-04-16T17:20:22.449Z,12.35
2023-04-16T17:23:27.176Z,19.63
2023-04-16T17:26:33.014Z,19.17
2023-04-16T17:29:37.032Z,15.50
2023-04-16T17:32:40.899Z,16.77
2023-04-16T17:35:45.372Z,12.90
2023-04-16T17:38:49.481Z,12.77
2023-04-16T17:41:55.745Z,18.20
2023-04-16T17:44:59.447Z,15.95
2023-04-16T17:48:04.119Z,11.57
2023-04-16T17:51:21.399Z,12.75
2023-04-16T17:54:26.432Z,12.10
2023-04-16T17:57:31.063Z,12.60
2023-04-16T18:00:36.096Z,23.08
2023-04-16T18:03:41.665Z,17.85
2023-04-16T18:06:45.250Z,10.48
2023-04-16T18:09:49.289Z,12.02
2023-04-16T18:12:53.070Z,14.98
2023-04-16T18:15:57.006Z,13.60
2023-04-16T18:19:01.625Z,16.02
2023-04-16T18:22:06.615Z,13.57
2023-04-16T18:25:10.139Z,17.08
2023-04-16T18:28:14.397Z,19.33
2023-04-16T18:31:21.123Z,19.20
2023-04-16T18:34:26.006Z,17.88
2023-04-16T18:37:30.071Z,17.05
2023-04-16T18:40:37.805Z,16.75
2023-04-16T18:43:41.690Z,15.95
2023-04-16T18:46:45.619Z,17.33
2023-04-16T18:49:51.451Z,15.50
2023-04-16T18:52:55.461Z,17.70
2023-04-16T18:56:00.297Z,17.88
2023-04-16T18:59:04.517Z,19.15
2023-04-16T19:02:08.153Z,16.95
2023-04-16T19:05:12.321Z,22.42
2023-04-16T19:08:16.350Z,17.73
2023-04-16T19:11:20.368Z,17.10
2023-04-16T19:14:24.491Z,17.73
2023-04-16T19:17:28.401Z,16.42
2023-04-16T19:20:36.497Z,15.40
2023-04-16T19:23:40.388Z,16.25
2023-04-16T19:26:45.139Z,16.90
2023-04-16T19:29:48.942Z,17.95
2023-04-16T19:32:55.264Z,17.77
2023-04-16T19:35:59.630Z,19.58
2023-04-16T19:39:04.363Z,15.77
2023-04-16T19:42:08.270Z,15.95
2023-04-16T19:45:16.595Z,15.73
2023-04-16T19:48:23.573Z,18.17
2023-04-16T19:51:27.576Z,14.98
2023-04-16T19:54:34.258Z,12.85
2023-04-16T19:57:37.663Z,12.63
2023-04-16T20:00:44.346Z,13.98
2023-04-16T20:03:49.117Z,14.00
2023-04-16T20:06:52.253Z,12.05
2023-04-16T20:09:56.267Z,11.73
2023-04-16T20:13:00.269Z,12.70
2023-04-16T20:16:04.586Z,13.60
2023-04-16T20:19:09.661Z,12.80
2023-04-16T20:22:13.945Z,13.90
2023-04-16T20:25:19.416Z,13.30
2023-04-16T20:28:22.895Z,12.32
2023-04-16T20:31:27.122Z,14.05
2023-04-16T20:34:31.220Z,10.68
2023-04-16T20:37:38.564Z,16.63
2023-04-16T20:40:42.226Z,22.00
2023-04-16T20:43:45.307Z,20.38
2023-04-16T20:46:51.701Z,16.77
2023-04-16T20:49:55.292Z,19.95
2023-04-16T20:52:58.761Z,19.88
2023-04-16T20:56:02.075Z,23.73
2023-04-16T20:59:05.270Z,17.15
2023-04-16T21:02:08.789Z,18.52
2023-04-16T21:05:14.841Z,19.23
2023-04-16T21:08:18.433Z,21.38
2023-04-16T21:11:21.527Z,20.85
2023-04-16T21:14:24.621Z,18.20
2023-04-16T21:17:27.947Z,14.95
2023-04-16T21:20:31.314Z,11.57
2023-04-16T21:23:34.402Z,10.82
2023-04-16T21:26:37.696Z,10.65
2023-04-16T21:29:40.992Z,12.80
2023-04-16T21:32:44.502Z,12.23
2023-04-16T21:35:52.500Z,9.52
2023-04-16T21:38:55.491Z,12.65
2023-04-16T21:41:58.297Z,10.80
2023-04-16T21:45:01.366Z,12.10
2023-04-16T21:48:04.479Z,11.07
2023-04-16T21:51:08.577Z,10.40
2023-04-16T21:54:11.964Z,9.73
2023-04-16T21:57:15.162Z,9.80
2023-04-16T22:00:18.668Z,11.23
2023-04-16T22:03:28.343Z,9.90
2023-04-16T22:09:38.197Z,10.30
2023-04-16T22:12:41.464Z,9.60
2023-04-16T22:15:44.460Z,9.77
2023-04-16T22:18:48.060Z,9.20
2023-04-16T22:21:51.269Z,9.23
2023-04-16T22:24:54.442Z,10.35
2023-04-16T22:27:57.540Z,9.27
2023-04-16T22:31:00.735Z,8.05
2023-04-16T22:34:03.809Z,7.78
2023-04-16T22:37:08.472Z,7.60
2023-04-16T22:40:11.972Z,6.65
2023-04-16T22:43:16.469Z,11.30
2023-04-16T22:46:22.564Z,9.57
2023-04-16T22:49:26.952Z,11.98
2023-04-16T22:52:29.986Z,10.27
2023-04-16T22:55:32.724Z,9.13
2023-04-16T22:58:35.620Z,8.82
2023-04-16T23:01:39.081Z,9.00
2023-04-16T23:04:42.408Z,8.68
2023-04-16T23:07:45.499Z,11.93
2023-04-16T23:10:48.548Z,11.98
2023-04-16T23:13:52.078Z,12.27
2023-04-16T23:16:55.071Z,16.98
2023-04-16T23:19:58.064Z,10.02
2023-04-16T23:23:01.427Z,9.20
2023-04-16T23:26:04.657Z,8.13
2023-04-16T23:29:07.849Z,8.80
2023-04-16T23:32:10.842Z,11.63
2023-04-16T23:35:13.928Z,16.48
2023-04-16T23:38:17.427Z,15.32
2023-04-16T23:41:20.414Z,12.98
2023-04-16T23:44:24.017Z,9.38
2023-04-16T23:47:27.131Z,9.50
2023-04-16T23:50:30.408Z,7.72
2023-04-16T23:53:33.705Z,8.23
2023-04-16T23:56:37.104Z,7.88
2023-04-16T23:59:40.295Z,7.82
